Time;durP1;ratioP1;P1;durP2;ratioP2;P2;SDS_P1;SDS_P2;PMS_P1;PMS_P2;Temp;Humidity;BMP_temperature;BMP_pressure;BME280_temperature;BME280_humidity;BME280_pressure;Samples;Min_cycle;Max_cycle;Signal;HPM_P1;HPM_P2
2021/08/16 00:00:45;;;;;;;7.57;5.47;;;24.00;99.90;;;;;;4997841;28;20557;-83
2021/08/16 00:03:12;;;;;;;7.95;5.30;;;23.90;99.90;;;;;;4997834;28;20113;-83
2021/08/16 00:05:38;;;;;;;7.63;5.25;;;24.00;99.90;;;;;;4994467;28;20053;-82
2021/08/16 00:08:07;;;;;;;7.35;5.47;;;24.10;99.90;;;;;;4998976;28;20489;-82
2021/08/16 00:10:33;;;;;;;8.00;4.82;;;24.00;99.90;;;;;;4997700;28;20035;-83
2021/08/16 00:12:59;;;;;;;5.90;4.95;;;24.00;99.90;;;;;;4998311;28;20029;-83
2021/08/16 00:15:25;;;;;;;8.27;4.50;;;23.80;99.90;;;;;;4997989;28;20112;-82
2021/08/16 00:17:50;;;;;;;7.38;5.28;;;23.80;99.90;;;;;;4994028;28;20026;-83
2021/08/16 00:20:16;;;;;;;5.18;4.50;;;23.90;99.90;;;;;;4998002;28;20061;-82
2021/08/16 00:22:42;;;;;;;8.45;4.63;;;23.90;99.90;;;;;;4998071;28;20023;-83
2021/08/16 00:25:07;;;;;;;6.78;4.43;;;23.80;99.90;;;;;;4997257;28;20039;-82
2021/08/16 00:27:34;;;;;;;8.85;4.90;;;23.90;99.90;;;;;;4997670;28;20113;-82
2021/08/16 00:30:01;;;;;;;8.40;4.70;;;23.80;99.90;;;;;;4995510;28;20487;-82
2021/08/16 00:32:26;;;;;;;8.50;4.32;;;23.60;99.90;;;;;;4995709;28;20491;-83
2021/08/16 00:34:52;;;;;;;6.60;4.47;;;23.60;99.90;;;;;;4997468;28;20058;-82
2021/08/16 00:37:18;;;;;;;6.95;4.80;;;23.50;99.90;;;;;;4998078;28;20030;-83
2021/08/16 00:39:43;;;;;;;6.03;4.50;;;23.60;99.90;;;;;;4996843;28;20499;-83
2021/08/16 00:42:12;;;;;;;9.40;5.32;;;23.60;99.90;;;;;;4996284;28;20112;-82
2021/08/16 00:44:39;;;;;;;8.68;4.53;;;23.70;99.90;;;;;;4993885;28;20129;-83
2021/08/16 00:47:05;;;;;;;6.72;4.10;;;23.60;99.90;;;;;;4998290;28;20066;-83
2021/08/16 00:49:31;;;;;;;6.57;4.50;;;23.60;99.90;;;;;;4997103;28;20113;-83
2021/08/16 00:51:57;;;;;;;7.72;4.18;;;23.60;99.90;;;;;;4997349;28;20444;-83
2021/08/16 00:54:23;;;;;;;9.98;4.85;;;23.40;99.90;;;;;;4996840;28;20030;-83
2021/08/16 00:56:48;;;;;;;8.00;4.65;;;23.50;99.90;;;;;;4993300;28;20030;-83
2021/08/16 00:59:17;;;;;;;6.97;4.50;;;23.50;99.90;;;;;;4996541;28;20491;-83
2021/08/16 01:01:42;;;;;;;6.47;4.35;;;23.40;99.90;;;;;;4997598;28;20034;-83
2021/08/16 01:04:08;;;;;;;7.85;5.00;;;23.30;99.90;;;;;;4997031;28;20372;-83
2021/08/16 01:06:34;;;;;;;7.57;4.57;;;23.30;99.90;;;;;;4996673;28;20096;-83
2021/08/16 01:08:59;;;;;;;5.72;4.72;;;23.20;99.90;;;;;;4994594;28;20019;-83
2021/08/16 01:11:25;;;;;;;6.03;4.57;;;23.30;99.90;;;;;;4995283;28;20038;-83
2021/08/16 01:13:51;;;;;;;7.97;4.28;;;23.40;99.90;;;;;;4997207;28;20018;-83
2021/08/16 01:16:19;;;;;;;7.50;4.50;;;23.60;99.90;;;;;;4996893;28;20109;-82
2021/08/16 01:18:44;;;;;;;5.40;4.38;;;23.40;99.90;;;;;;4997019;28;20023;-83
2021/08/16 01:21:13;;;;;;;6.13;4.35;;;23.30;99.90;;;;;;4995622;28;20395;-83
2021/08/16 01:23:40;;;;;;;8.18;4.60;;;23.40;99.90;;;;;;4992361;28;20022;-83
2021/08/16 01:26:06;;;;;;;7.75;4.90;;;23.40;99.90;;;;;;4997329;28;20067;-83
2021/08/16 01:28:31;;;;;;;5.93;4.80;;;23.30;99.90;;;;;;4996486;28;20030;-83
2021/08/16 01:31:00;;;;;;;8.57;4.80;;;23.30;99.90;;;;;;4996618;28;20033;-82
2021/08/16 01:33:27;;;;;;;5.43;4.70;;;23.30;99.90;;;;;;4996448;28;20044;-83
2021/08/16 01:35:53;;;;;;;6.45;4.45;;;23.20;99.90;;;;;;4992940;28;20069;-83
2021/08/16 01:38:21;;;;;;;9.38;4.43;;;23.20;99.90;;;;;;4995447;28;20054;-83
2021/08/16 01:40:47;;;;;;;7.90;4.75;;;23.10;99.90;;;;;;4996516;28;20109;-83
2021/08/16 01:43:13;;;;;;;9.13;5.10;;;23.10;99.90;;;;;;4996601;28;20026;-83
2021/08/16 01:45:39;;;;;;;9.55;4.80;;;23.10;99.90;;;;;;4996402;28;20136;-83
2021/08/16 01:48:06;;;;;;;8.48;4.07;;;23.20;99.90;;;;;;4994536;28;20031;-83
2021/08/16 01:50:32;;;;;;;6.85;4.75;;;23.10;99.90;;;;;;4993542;28;20471;-83
2021/08/16 01:52:57;;;;;;;7.43;4.30;;;23.00;99.90;;;;;;4979475;28;20414;-83
2021/08/16 01:55:23;;;;;;;12.85;4.50;;;23.00;99.90;;;;;;4978505;28;20033;-83
2021/08/16 01:57:49;;;;;;;6.25;4.53;;;23.00;99.90;;;;;;4978421;28;20460;-82
2021/08/16 02:00:16;;;;;;;8.10;4.35;;;23.00;99.90;;;;;;4996117;28;20040;-83
2021/08/16 02:02:42;;;;;;;6.10;4.15;;;23.10;99.90;;;;;;4992277;28;20142;-83
2021/08/16 02:05:08;;;;;;;6.55;4.68;;;23.10;99.90;;;;;;4996460;28;20510;-83
2021/08/16 02:07:33;;;;;;;7.80;4.80;;;23.00;99.90;;;;;;4978262;28;20033;-83
2021/08/16 02:09:59;;;;;;;8.23;4.15;;;22.90;99.90;;;;;;4996190;28;20101;-83
2021/08/16 02:12:25;;;;;;;7.70;4.55;;;22.90;99.90;;;;;;4995866;28;20030;-83
2021/08/16 02:14:51;;;;;;;9.45;4.22;;;23.00;99.90;;;;;;4992523;28;20039;-83
2021/08/16 02:17:16;;;;;;;9.27;5.22;;;22.80;99.90;;;;;;4977939;28;20022;-82
2021/08/16 02:19:42;;;;;;;9.50;5.10;;;22.80;99.90;;;;;;4996180;28;20030;-83
2021/08/16 02:22:08;;;;;;;7.65;5.10;;;22.80;99.90;;;;;;4995490;28;20019;-83
2021/08/16 02:24:34;;;;;;;9.10;5.68;;;22.80;99.90;;;;;;4977973;28;20525;-83
2021/08/16 02:26:59;;;;;;;7.50;4.90;;;22.80;99.90;;;;;;4993737;28;20034;-83
2021/08/16 02:29:25;;;;;;;10.18;5.75;;;22.80;99.90;;;;;;4993998;28;20085;-83
2021/08/16 02:31:51;;;;;;;9.45;6.03;;;22.80;99.90;;;;;;4996570;28;20026;-83
2021/08/16 02:34:16;;;;;;;8.32;5.15;;;22.60;99.90;;;;;;4995572;28;20034;-83
2021/08/16 02:36:42;;;;;;;8.73;5.70;;;22.70;99.90;;;;;;4995470;28;20458;-83
2021/08/16 02:39:07;;;;;;;11.43;6.22;;;22.70;99.90;;;;;;4994599;28;20022;-83
2021/08/16 02:41:33;;;;;;;10.02;6.40;;;22.70;99.90;;;;;;4992729;28;20030;-83
2021/08/16 02:43:59;;;;;;;11.02;6.80;;;22.70;99.90;;;;;;4996270;28;20026;-82
2021/08/16 02:46:24;;;;;;;11.10;6.00;;;22.60;99.90;;;;;;4995512;28;20129;-82
2021/08/16 02:48:51;;;;;;;10.07;6.57;;;22.60;99.90;;;;;;4995465;28;20022;-83
2021/08/16 02:51:16;;;;;;;15.25;7.57;;;22.80;99.90;;;;;;4995228;28;20106;-83
2021/08/16 02:53:42;;;;;;;10.70;7.65;;;22.70;99.90;;;;;;4991462;28;20034;-83
2021/08/16 02:56:07;;;;;;;9.68;7.82;;;22.80;99.90;;;;;;4978670;28;20376;-83
2021/08/16 02:58:33;;;;;;;10.27;7.88;;;22.80;99.90;;;;;;4995477;28;20026;-83
2021/08/16 03:00:59;;;;;;;9.50;7.82;;;22.60;99.90;;;;;;4995568;28;20026;-82
2021/08/16 03:03:24;;;;;;;13.38;8.30;;;22.60;99.90;;;;;;4995375;28;20714;-83
2021/08/16 03:05:50;;;;;;;11.98;7.60;;;22.60;99.90;;;;;;4991408;28;20051;-82
2021/08/16 03:08:15;;;;;;;16.50;8.55;;;22.70;99.90;;;;;;4995395;28;20022;-83
2021/08/16 03:10:41;;;;;;;13.18;8.90;;;22.70;99.90;;;;;;4995911;28;20427;-83
2021/08/16 03:13:07;;;;;;;12.45;8.70;;;22.60;99.90;;;;;;4995195;28;20056;-83
2021/08/16 03:15:32;;;;;;;12.00;10.65;;;22.50;99.90;;;;;;4995356;28;20033;-83
2021/08/16 03:18:00;;;;;;;13.40;8.30;;;22.60;99.90;;;;;;4992758;28;20518;-83
2021/08/16 03:20:26;;;;;;;10.25;8.93;;;22.50;99.90;;;;;;4993553;28;20044;-83
2021/08/16 03:22:51;;;;;;;9.40;7.38;;;22.70;99.90;;;;;;4996567;28;20030;-83
2021/08/16 03:25:17;;;;;;;10.27;7.50;;;22.70;99.90;;;;;;4981160;28;20419;-82
2021/08/16 03:27:43;;;;;;;9.82;8.43;;;22.70;99.90;;;;;;4998946;28;20077;-83
2021/08/16 03:30:12;;;;;;;9.63;6.97;;;22.70;99.90;;;;;;4997396;28;20123;-83
2021/08/16 03:32:37;;;;;;;10.43;6.85;;;22.50;99.90;;;;;;4995541;28;20037;-83
2021/08/16 03:35:04;;;;;;;11.00;6.65;;;22.40;99.90;;;;;;4981654;28;20050;-83
2021/08/16 03:37:34;;;;;;;8.88;7.15;;;22.40;99.90;;;;;;4998581;28;20046;-83
2021/08/16 03:40:01;;;;;;;9.70;7.47;;;22.20;99.90;;;;;;4998513;28;20439;-83
2021/08/16 03:42:26;;;;;;;8.43;7.03;;;22.20;99.90;;;;;;4998447;28;20044;-83
2021/08/16 03:44:53;;;;;;;10.10;7.00;;;22.10;99.90;;;;;;4994907;28;20034;-83
2021/08/16 03:47:18;;;;;;;10.43;7.72;;;22.10;99.90;;;;;;4998531;28;20398;-83
2021/08/16 03:49:44;;;;;;;10.52;7.13;;;22.00;99.90;;;;;;4997960;28;20025;-83
2021/08/16 03:52:10;;;;;;;11.63;7.15;;;21.90;99.90;;;;;;4998296;28;20085;-83
2021/08/16 03:54:36;;;;;;;11.40;7.32;;;22.00;99.90;;;;;;4980637;28;20030;-84
2021/08/16 03:57:01;;;;;;;13.73;8.00;;;21.90;99.90;;;;;;4996020;28;20446;-83
2021/08/16 03:59:27;;;;;;;11.75;7.13;;;21.70;99.90;;;;;;4996652;28;20022;-84
2021/08/16 04:01:53;;;;;;;8.98;6.90;;;21.80;99.90;;;;;;4998538;28;20038;-83
2021/08/16 04:04:18;;;;;;;9.95;7.38;;;21.70;99.90;;;;;;4998199;28;20030;-83
2021/08/16 04:06:45;;;;;;;9.65;7.13;;;21.80;99.90;;;;;;4997874;28;20089;-83
2021/08/16 04:09:11;;;;;;;10.25;7.03;;;21.60;99.90;;;;;;4979754;28;20026;-83
2021/08/16 04:11:38;;;;;;;9.68;6.93;;;21.50;99.90;;;;;;4994749;28;20084;-83
2021/08/16 04:14:04;;;;;;;9.68;6.50;;;21.50;99.90;;;;;;4980541;28;20423;-83
2021/08/16 04:16:29;;;;;;;11.68;6.80;;;21.50;99.90;;;;;;4998087;28;20018;-83
2021/08/16 04:18:55;;;;;;;12.63;6.95;;;21.30;99.90;;;;;;4997511;28;20475;-83
2021/08/16 04:21:21;;;;;;;10.02;7.07;;;21.30;99.90;;;;;;4998104;28;20022;-84
2021/08/16 04:23:46;;;;;;;8.18;6.93;;;21.30;99.90;;;;;;4993664;28;20495;-83
2021/08/16 04:26:12;;;;;;;8.18;6.97;;;21.30;99.90;;;;;;5004993;28;20494;-83
2021/08/16 04:28:38;;;;;;;13.35;7.57;;;21.10;99.90;;;;;;4998041;28;20491;-83
2021/08/16 04:31:03;;;;;;;7.25;5.80;;;20.90;99.90;;;;;;4998213;28;20033;-83
2021/08/16 04:33:29;;;;;;;9.27;6.22;;;20.80;99.90;;;;;;4996990;28;20049;-83
2021/08/16 04:35:55;;;;;;;8.02;6.57;;;20.70;99.90;;;;;;4993020;28;20515;-83
2021/08/16 04:38:22;;;;;;;9.00;6.50;;;20.60;99.90;;;;;;4996713;28;20117;-84
2021/08/16 04:40:49;;;;;;;8.63;6.75;;;20.50;99.90;;;;;;4997051;28;20022;-83
2021/08/16 04:43:15;;;;;;;9.93;7.18;;;20.80;99.90;;;;;;4997419;28;20409;-84
2021/08/16 04:45:41;;;;;;;8.02;6.70;;;20.80;99.90;;;;;;4997118;28;20098;-84
2021/08/16 04:48:07;;;;;;;10.13;7.38;;;21.00;99.90;;;;;;4995632;28;20194;-84
2021/08/16 04:50:32;;;;;;;8.27;6.63;;;21.00;99.90;;;;;;4994266;28;20030;-84
2021/08/16 04:52:58;;;;;;;7.55;6.60;;;21.00;99.90;;;;;;4998417;28;20026;-83
2021/08/16 04:55:23;;;;;;;8.98;7.03;;;21.10;99.90;;;;;;4997067;28;20037;-83
2021/08/16 04:57:49;;;;;;;9.35;6.82;;;21.20;99.90;;;;;;4997112;28;20038;-83
2021/08/16 05:00:16;;;;;;;10.10;6.95;;;21.20;99.90;;;;;;4996179;28;20051;-83
2021/08/16 05:02:42;;;;;;;8.90;6.28;;;21.30;99.90;;;;;;4992935;28;20026;-84
2021/08/16 05:07:34;;;;;;;9.57;6.97;;;21.60;99.90;;;;;;4996986;28;20031;-83
2021/08/16 05:10:00;;;;;;;9.65;7.00;;;21.80;99.90;;;;;;4997100;28;20030;-84
2021/08/16 05:12:25;;;;;;;8.90;6.80;;;21.90;99.90;;;;;;4997126;28;20554;-83
2021/08/16 05:14:52;;;;;;;9.70;7.13;;;22.00;99.90;;;;;;4992930;28;20113;-83
2021/08/16 05:17:18;;;;;;;8.90;6.88;;;22.20;99.90;;;;;;4996485;28;20045;-83
2021/08/16 05:19:44;;;;;;;9.23;6.55;;;22.30;99.90;;;;;;4996946;28;20124;-83
2021/08/16 05:22:10;;;;;;;8.02;6.38;;;22.30;99.90;;;;;;4996677;28;20078;-83
2021/08/16 05:24:37;;;;;;;9.05;7.00;;;22.20;99.90;;;;;;4996699;28;20037;-83
2021/08/16 05:27:03;;;;;;;9.60;7.00;;;22.20;99.90;;;;;;4994535;28;20034;-84
2021/08/16 05:29:30;;;;;;;17.58;7.22;;;22.10;4.90;;;;;;4994002;28;20371;-82
2021/08/16 05:31:56;;;;;;;8.63;6.72;;;22.20;1.00;;;;;;4997309;28;20022;-83
2021/08/16 05:34:21;;;;;;;9.30;6.97;;;22.00;99.90;;;;;;4996743;28;20523;-83
2021/08/16 05:36:47;;;;;;;7.20;6.47;;;22.00;99.90;;;;;;4996306;28;20031;-83
2021/08/16 05:39:12;;;;;;;7.00;6.28;;;22.00;99.90;;;;;;4995716;28;20049;-83
2021/08/16 05:41:38;;;;;;;9.27;7.50;;;22.10;99.90;;;;;;4993147;28;20018;-83
2021/08/16 05:44:04;;;;;;;8.52;6.60;;;22.00;99.90;;;;;;4996198;28;20471;-83
2021/08/16 05:46:30;;;;;;;10.63;6.63;;;22.00;99.90;;;;;;4996642;28;20084;-83
2021/08/16 05:48:55;;;;;;;10.00;6.32;;;22.10;99.90;;;;;;4995886;28;20034;-83
2021/08/16 05:51:21;;;;;;;9.38;6.65;;;21.90;99.90;;;;;;4996192;28;20034;-84
2021/08/16 05:53:46;;;;;;;9.93;6.20;;;22.00;99.90;;;;;;4991666;28;20033;-83
2021/08/16 05:56:12;;;;;;;8.38;6.35;;;22.10;99.90;;;;;;5003866;28;20026;-83
2021/08/16 05:58:38;;;;;;;10.07;6.80;;;22.00;99.90;;;;;;4995799;28;20491;-82
2021/08/16 06:01:04;;;;;;;8.00;6.25;;;21.90;99.90;;;;;;4995865;28;20034;-82
2021/08/16 06:03:30;;;;;;;9.52;6.15;;;21.90;99.90;;;;;;4996719;28;20029;-82
2021/08/16 06:05:55;;;;;;;7.45;5.97;;;22.10;99.90;;;;;;4992544;28;20499;-82
2021/08/16 06:08:21;;;;;;;6.55;5.45;;;22.00;99.90;;;;;;4995264;28;20084;-82
2021/08/16 06:10:46;;;;;;;7.40;5.80;;;22.00;99.90;;;;;;4996213;28;20037;-82
2021/08/16 06:13:12;;;;;;;7.40;6.15;;;22.20;99.90;;;;;;4995479;28;20045;-82
2021/08/16 06:15:38;;;;;;;10.95;5.93;;;22.20;99.90;;;;;;4995938;28;20479;-82
2021/08/16 06:18:04;;;;;;;9.10;5.25;;;22.30;99.90;;;;;;4994548;28;20064;-82
2021/08/16 06:20:29;;;;;;;7.03;5.90;;;22.20;99.90;;;;;;4993345;28;20026;-83
2021/08/16 06:22:55;;;;;;;7.28;5.95;;;22.30;99.90;;;;;;4996522;28;20033;-82
2021/08/16 06:25:21;;;;;;;7.78;5.70;;;22.40;99.90;;;;;;4996204;28;20046;-82
2021/08/16 06:27:46;;;;;;;8.50;6.10;;;22.40;99.90;;;;;;4995640;28;20146;-82
2021/08/16 06:30:12;;;;;;;8.70;5.40;;;22.50;99.90;;;;;;4994817;28;20426;-82
2021/08/16 06:32:39;;;;;;;11.25;5.80;;;22.40;99.90;;;;;;4992128;28;20034;-81
2021/08/16 06:35:06;;;;;;;8.05;5.72;;;22.40;99.90;;;;;;4996576;28;20057;-81
2021/08/16 06:37:32;;;;;;;7.78;5.25;;;22.40;99.90;;;;;;4995685;28;20085;-82
2021/08/16 06:39:57;;;;;;;7.55;5.03;;;22.40;99.90;;;;;;4995116;28;20026;-82
2021/08/16 06:42:23;;;;;;;8.07;5.28;;;22.40;99.90;;;;;;4994410;28;20026;-82
2021/08/16 06:44:49;;;;;;;7.03;4.97;;;22.60;99.90;;;;;;4991272;28;20431;-81
2021/08/16 06:47:15;;;;;;;6.03;4.50;;;22.80;99.90;;;;;;4995654;28;20022;-81
2021/08/16 06:49:40;;;;;;;5.72;4.45;;;22.60;99.90;;;;;;4977381;28;20399;-82
2021/08/16 06:52:06;;;;;;;7.45;5.47;;;22.80;99.90;;;;;;4995251;28;20097;-82
2021/08/16 06:54:32;;;;;;;6.65;4.93;;;23.00;99.90;;;;;;4995610;28;20018;-82
2021/08/16 06:57:02;;;;;;;5.20;4.38;;;23.00;99.90;;;;;;4992441;28;20037;-81
2021/08/16 06:59:28;;;;;;;4.43;4.03;;;23.00;99.90;;;;;;4987175;28;20048;-81
2021/08/16 07:01:54;;;;;;;5.57;4.25;;;23.30;99.90;;;;;;4999085;28;20045;-81
2021/08/16 07:04:19;;;;;;;4.60;4.00;;;23.20;99.90;;;;;;4999450;28;20395;-81
2021/08/16 07:06:46;;;;;;;5.07;3.78;;;23.30;99.90;;;;;;4998750;28;20042;-81
2021/08/16 07:09:12;;;;;;;7.00;3.88;;;23.40;99.90;;;;;;4997769;28;20014;-81
2021/08/16 07:11:37;;;;;;;7.03;3.95;;;23.30;99.90;;;;;;4995143;28;20041;-81
2021/08/16 07:14:03;;;;;;;4.75;3.75;;;23.10;99.90;;;;;;4999232;28;20019;-81
2021/08/16 07:16:29;;;;;;;4.03;3.63;;;22.90;99.90;;;;;;4998848;28;20483;-82
2021/08/16 07:18:54;;;;;;;4.40;3.60;;;22.80;99.90;;;;;;4998611;28;20037;-82
2021/08/16 07:21:20;;;;;;;9.27;3.80;;;22.90;99.90;;;;;;4998873;28;20021;-82
2021/08/16 07:23:46;;;;;;;7.47;3.75;;;23.00;99.90;;;;;;4994373;28;20027;-81
2021/08/16 07:26:11;;;;;;;6.10;3.72;;;23.00;99.90;;;;;;4999013;28;20045;-81
2021/08/16 07:28:37;;;;;;;5.68;3.95;;;22.90;99.90;;;;;;4998560;28;20050;-80
2021/08/16 07:31:04;;;;;;;6.53;3.50;;;22.90;99.90;;;;;;4998308;28;20094;-80
2021/08/16 07:33:29;;;;;;;4.32;3.50;;;23.20;99.90;;;;;;4998257;28;20022;-82
2021/08/16 07:35:55;;;;;;;6.10;4.50;;;23.30;99.90;;;;;;4995459;28;20478;-79
2021/08/16 07:38:21;;;;;;;5.43;3.90;;;23.20;99.90;;;;;;5009249;28;20025;-79
2021/08/16 07:40:46;;;;;;;5.13;3.95;;;23.10;99.90;;;;;;4997951;28;20035;-82
2021/08/16 07:43:12;;;;;;;4.10;3.63;;;23.30;99.90;;;;;;4998225;28;20085;-85
2021/08/16 07:45:38;;;;;;;4.97;3.38;;;23.50;99.90;;;;;;4998171;28;20050;-77
2021/08/16 07:48:05;;;;;;;9.00;3.80;;;23.60;99.90;;;;;;4996288;28;20045;-84
2021/08/16 07:50:32;;;;;;;4.53;3.80;;;23.70;99.90;;;;;;4995588;28;20038;-83
2021/08/16 07:52:58;;;;;;;5.50;3.15;;;24.00;99.90;;;;;;4981464;28;20034;-83
2021/08/16 07:55:24;;;;;;;6.00;3.67;;;23.90;99.90;;;;;;4997876;28;20062;-82
2021/08/16 07:57:50;;;;;;;4.57;3.70;;;24.00;99.90;;;;;;4997974;28;20494;-83
2021/08/16 08:00:16;;;;;;;5.15;3.63;;;23.90;99.90;;;;;;4997800;28;20113;-83
2021/08/16 08:02:44;;;;;;;5.05;3.67;;;24.00;99.90;;;;;;4994752;28;20027;-84
2021/08/16 08:05:12;;;;;;;5.35;3.58;;;24.00;99.90;;;;;;4998669;28;20023;-85
2021/08/16 08:07:38;;;;;;;5.22;3.08;;;23.80;99.90;;;;;;4997892;28;20494;-82
2021/08/16 08:10:05;;;;;;;4.05;3.38;;;23.80;99.90;;;;;;4997366;28;20030;-83
2021/08/16 08:12:31;;;;;;;4.22;3.35;;;24.00;99.90;;;;;;4997663;28;20038;-84
2021/08/16 08:14:57;;;;;;;3.22;2.80;;;24.20;99.90;;;;;;4995531;28;20030;-84
2021/08/16 08:17:22;;;;;;;6.28;2.90;;;24.40;99.90;;;;;;4996524;28;20030;-83
2021/08/16 08:19:49;;;;;;;3.67;3.08;;;24.50;99.90;;;;;;4998184;28;20030;-84
2021/08/16 08:22:16;;;;;;;3.40;2.85;;;24.60;99.90;;;;;;4998084;28;20039;-82
2021/08/16 08:24:42;;;;;;;5.43;3.00;;;24.70;99.90;;;;;;4996942;28;20023;-82
2021/08/16 08:27:07;;;;;;;4.03;3.03;;;24.80;99.90;;;;;;4996054;28;20084;-82
2021/08/16 08:29:33;;;;;;;5.18;3.20;;;24.90;99.90;;;;;;4994868;28;20117;-83
2021/08/16 08:31:59;;;;;;;3.95;2.83;;;25.10;99.90;;;;;;4998006;28;20533;-83
2021/08/16 08:34:24;;;;;;;3.20;2.90;;;25.10;99.90;;;;;;4997250;28;20038;-83
2021/08/16 08:36:50;;;;;;;4.10;2.80;;;24.90;99.90;;;;;;4997605;28;20022;-83
2021/08/16 08:39:15;;;;;;;3.92;3.00;;;25.00;99.90;;;;;;4996535;28;20025;-83
2021/08/16 08:41:41;;;;;;;7.93;3.10;;;25.10;99.90;;;;;;4993459;28;20022;-83
2021/08/16 08:44:12;;;;;;;6.35;3.28;;;25.40;99.90;;;;;;4997720;28;20394;-83
2021/08/16 08:46:42;;;;;;;6.28;3.13;;;25.00;99.90;;;;;;4996997;28;20053;-82
2021/08/16 08:49:10;;;;;;;3.45;3.00;;;25.10;99.90;;;;;;4997253;28;20503;-82
2021/08/16 08:51:39;;;;;;;4.00;2.88;;;24.80;99.90;;;;;;4997468;28;20033;-83
2021/08/16 08:54:05;;;;;;;4.70;3.00;;;24.50;99.90;;;;;;4995210;28;20038;-82
2021/08/16 08:56:31;;;;;;;3.92;3.10;;;24.10;99.90;;;;;;4994346;28;20084;-83
2021/08/16 08:58:57;;;;;;;4.10;3.22;;;24.00;99.90;;;;;;4997387;28;20030;-83
2021/08/16 09:01:23;;;;;;;4.20;3.30;;;24.10;99.90;;;;;;4997686;28;20034;-83
2021/08/16 09:03:50;;;;;;;3.80;2.97;;;24.30;99.90;;;;;;4996801;28;20054;-83
2021/08/16 09:06:34;;;;;;;3.63;2.88;;;23.90;99.90;;;;;;4978883;28;20498;-83
2021/08/16 09:09:01;;;;;;;4.65;2.38;;;23.10;99.90;;;;;;4981184;28;20022;-83
2021/08/16 09:11:28;;;;;;;2.55;1.90;;;22.70;99.90;;;;;;4994338;28;20499;-83
2021/08/16 09:14:01;;;;;;;3.05;2.03;;;22.60;99.90;;;;;;4997298;28;20023;-83
2021/08/16 09:16:33;;;;;;;3.08;1.80;;;22.60;99.90;;;;;;4979198;28;20033;-82
2021/08/16 09:19:10;;;;;;;2.92;1.85;;;22.40;99.90;;;;;;4997024;28;20033;-83
2021/08/16 09:21:37;;;;;;;3.85;1.98;;;22.30;99.90;;;;;;4995831;28;20117;-83
2021/08/16 09:24:04;;;;;;;2.70;1.70;;;22.60;99.90;;;;;;4994407;28;20487;-82
2021/08/16 09:26:32;;;;;;;2.42;1.60;;;22.80;99.90;;;;;;4993973;28;20069;-82
2021/08/16 09:29:24;;;;;;;4.72;1.83;;;22.60;99.90;;;;;;5007504;28;20037;-82
2021/08/16 09:32:03;;;;;;;2.92;1.60;;;22.60;99.90;;;;;;4993182;28;20395;-82
2021/08/16 09:34:42;;;;;;;3.78;2.13;;;22.80;99.90;;;;;;4996711;28;20462;-82
2021/08/16 09:37:18;;;;;;;5.50;2.60;;;23.10;99.90;;;;;;4996010;28;20136;-82
2021/08/16 09:39:44;;;;;;;4.65;2.53;;;23.70;99.90;;;;;;4978656;28;20490;-82
2021/08/16 09:42:10;;;;;;;6.45;2.60;;;23.60;99.90;;;;;;4995593;28;20056;-82
2021/08/16 09:44:47;;;;;;;6.07;2.58;;;24.10;99.90;;;;;;4975964;28;20042;-82
2021/08/16 09:47:13;;;;;;;6.45;3.40;;;24.30;99.90;;;;;;5003970;28;20457;-81
2021/08/16 09:49:39;;;;;;;5.13;2.90;;;24.50;99.90;;;;;;4996488;28;20035;-82
2021/08/16 09:52:10;;;;;;;5.90;2.83;;;24.70;99.90;;;;;;4995367;28;20520;-82
2021/08/16 09:54:38;;;;;;;7.00;3.13;;;25.30;99.90;;;;;;4995915;28;20042;-82
2021/08/16 09:57:05;;;;;;;7.68;2.85;;;25.10;99.90;;;;;;4994214;28;20022;-82
2021/08/16 09:59:35;;;;;;;9.88;3.47;;;25.40;99.90;;;;;;4993889;28;20027;-83
2021/08/16 10:02:01;;;;;;;5.43;2.85;;;26.50;99.90;;;;;;4996747;28;20030;-82
2021/08/16 10:04:31;;;;;;;7.03;3.00;;;27.30;99.90;;;;;;5005331;28;20030;-82
2021/08/16 10:06:58;;;;;;;5.15;2.67;;;27.60;99.90;;;;;;5001388;28;20042;-82
2021/08/16 10:09:25;;;;;;;4.45;2.67;;;27.80;99.90;;;;;;4996036;28;20022;-82
2021/08/16 10:11:52;;;;;;;8.38;2.85;;;27.20;99.90;;;;;;4992967;28;20058;-81
2021/08/16 10:14:21;;;;;;;6.35;3.15;;;27.50;99.90;;;;;;4995316;28;20069;-86
2021/08/16 10:16:50;;;;;;;5.22;2.70;;;27.70;99.90;;;;;;4978666;28;20044;-85
2021/08/16 10:19:20;;;;;;;6.55;3.42;;;28.00;99.90;;;;;;4995602;28;20479;-86
2021/08/16 10:21:47;;;;;;;5.50;3.17;;;27.30;99.90;;;;;;4995808;28;20080;-87
2021/08/16 10:24:16;;;;;;;7.35;3.20;;;26.40;99.90;;;;;;4995404;28;20022;-87
2021/08/16 10:26:42;;;;;;;7.28;3.35;;;25.90;99.90;;;;;;4992124;28;20038;-86
2021/08/16 10:29:10;;;;;;;8.13;3.70;;;25.80;99.90;;;;;;4996637;28;20038;-83
2021/08/16 10:31:42;;;;;;;6.28;2.80;;;25.80;99.90;;;;;;4995961;28;20031;-85
2021/08/16 10:34:08;;;;;;;5.13;2.90;;;26.90;99.90;;;;;;4998849;28;20034;-87
2021/08/16 10:36:34;;;;;;;6.22;3.10;;;27.10;99.90;;;;;;5000058;28;20030;-87
2021/08/16 10:39:02;;;;;;;6.05;3.10;;;26.50;99.90;;;;;;4997608;28;20389;-83
2021/08/16 10:41:42;;;;;;;7.38;2.92;;;27.10;99.90;;;;;;4997900;28;20026;-84
2021/08/16 10:44:16;;;;;;;7.03;3.03;;;27.60;99.90;;;;;;4999380;28;20030;-84
2021/08/16 10:46:46;;;;;;;6.25;3.10;;;28.30;99.90;;;;;;4999054;28;20049;-84
2021/08/16 10:49:15;;;;;;;5.63;2.80;;;32.40;99.90;;;;;;4999482;28;20463;-85
2021/08/16 10:51:42;;;;;;;6.63;3.28;;;36.20;99.90;;;;;;4999784;28;20031;-83
2021/08/16 10:54:08;;;;;;;7.00;3.17;;;36.60;99.90;;;;;;4998052;28;20029;-83
2021/08/16 10:56:34;;;;;;;6.53;3.08;;;37.30;99.90;;;;;;4997047;28;20022;-85
2021/08/16 10:59:01;;;;;;;8.02;3.47;;;38.10;99.90;;;;;;5000450;28;20045;-85
2021/08/16 11:01:29;;;;;;;4.20;3.05;;;35.60;99.90;;;;;;4982433;28;20033;-85
2021/08/16 11:04:06;;;;;;;6.07;2.88;;;37.90;99.90;;;;;;4999031;28;20101;-85
2021/08/16 11:06:32;;;;;;;7.05;3.00;;;39.00;99.90;;;;;;4999466;28;20514;-86
2021/08/16 11:09:03;;;;;;;5.95;2.70;;;39.10;99.90;;;;;;4980062;28;20019;-86
2021/08/16 11:11:32;;;;;;;6.18;2.85;;;39.70;99.90;;;;;;4979829;28;20113;-86
2021/08/16 11:14:05;;;;;;;5.22;2.83;;;35.20;99.90;;;;;;4998246;28;20030;-86
2021/08/16 11:16:31;;;;;;;4.80;3.03;;;33.00;99.90;;;;;;4999985;28;20230;-86
2021/08/16 11:18:57;;;;;;;4.82;3.00;;;36.70;99.90;;;;;;4999209;28;20105;-86
2021/08/16 11:21:25;;;;;;;5.50;3.00;;;39.50;99.90;;;;;;4999346;28;20038;-86
2021/08/16 11:24:01;;;;;;;7.50;3.22;;;40.20;99.90;;;;;;4996423;28;20033;-89
2021/08/16 11:26:27;;;;;;;8.45;3.47;;;36.80;99.90;;;;;;4998202;28;20034;-87
2021/08/16 11:29:03;;;;;;;5.25;3.20;;;33.30;99.90;;;;;;4999326;28;20483;-82
2021/08/16 11:31:30;;;;;;;3.75;2.65;;;34.60;99.90;;;;;;4998569;28;20034;-82
2021/08/16 11:34:09;;;;;;;4.53;2.85;;;38.30;99.90;;;;;;4997980;28;20030;-82
2021/08/16 11:36:36;;;;;;;4.18;2.83;;;40.40;99.90;;;;;;4998829;28;20042;-84
2021/08/16 11:39:05;;;;;;;6.55;2.88;;;40.90;99.90;;;;;;4996849;28;20033;-82
2021/08/16 11:41:33;;;;;;;4.57;2.60;;;39.30;99.90;;;;;;4995993;28;20041;-83
2021/08/16 11:44:19;;;;;;;4.95;2.33;;;40.60;99.90;;;;;;4998431;28;20376;-83
2021/08/16 11:46:44;;;;;;;4.25;2.40;;;40.30;99.90;;;;;;4997378;28;20659;-82
2021/08/16 11:49:11;;;;;;;4.05;2.78;;;37.10;99.90;;;;;;4998129;28;20022;-82
2021/08/16 11:51:43;;;;;;;3.83;2.40;;;37.30;99.90;;;;;;4998652;28;20077;-83
2021/08/16 11:54:08;;;;;;;5.15;2.60;;;37.60;99.90;;;;;;4996801;28;20056;-83
2021/08/16 11:56:39;;;;;;;5.05;2.55;;;37.00;99.90;;;;;;4995192;28;20057;-83
2021/08/16 11:59:13;;;;;;;4.18;2.50;;;35.80;99.90;;;;;;4998690;28;20037;-83
2021/08/16 12:01:40;;;;;;;5.03;2.38;;;33.30;99.90;;;;;;4998043;28;20084;-82
2021/08/16 12:04:07;;;;;;;4.32;2.60;;;32.40;99.90;;;;;;4998017;28;20113;-83
2021/08/16 12:06:33;;;;;;;7.97;2.53;;;31.60;99.90;;;;;;4998031;28;20518;-82
2021/08/16 12:09:09;;;;;;;7.22;2.55;;;30.70;99.90;;;;;;4995335;28;20105;-82
2021/08/16 12:11:35;;;;;;;5.30;2.60;;;30.00;99.90;;;;;;4994812;28;20427;-82
2021/08/16 12:14:02;;;;;;;4.88;2.70;;;29.60;99.90;;;;;;4998417;28;20388;-82
2021/08/16 12:16:30;;;;;;;3.75;2.17;;;29.30;99.90;;;;;;4997635;28;20086;-82
2021/08/16 12:18:56;;;;;;;4.13;2.30;;;28.80;99.90;;;;;;4997977;28;20033;-82
2021/08/16 12:21:23;;;;;;;5.65;2.20;;;28.70;99.90;;;;;;4997739;28;20748;-82
2021/08/16 12:23:57;;;;;;;5.10;2.60;;;28.30;99.90;;;;;;4993410;28;20213;-82
2021/08/16 12:26:37;;;;;;;4.72;2.45;;;28.20;99.90;;;;;;4996421;28;20041;-83
2021/08/16 12:29:23;;;;;;;4.07;2.60;;;28.50;99.90;;;;;;4994875;28;20512;-82
2021/08/16 12:31:48;;;;;;;4.60;2.25;;;28.70;99.90;;;;;;4996601;28;20062;-82
2021/08/16 12:34:14;;;;;;;7.30;2.30;;;29.20;99.90;;;;;;4996703;28;20066;-82
2021/08/16 12:36:49;;;;;;;4.20;2.05;;;29.20;99.90;;;;;;4997804;28;20038;-82
2021/08/16 12:39:15;;;;;;;3.45;2.20;;;29.10;99.90;;;;;;4996510;28;20033;-82
2021/08/16 12:41:41;;;;;;;4.22;2.13;;;28.40;99.90;;;;;;4993396;28;20022;-82
2021/08/16 12:44:19;;;;;;;3.08;2.13;;;28.40;99.90;;;;;;4997769;28;20034;-82
2021/08/16 12:46:45;;;;;;;4.22;2.20;;;27.90;99.90;;;;;;4997114;28;20046;-82